createdAt,value
2017-09-26T00:01:03.105Z,19.03
2017-09-26T00:03:31.623Z,19.80
2017-09-26T00:06:03.172Z,20.30
2017-09-26T00:08:32.004Z,20.60
2017-09-26T00:11:02.068Z,21.37
2017-09-26T00:13:31.114Z,22.00
2017-09-26T00:16:00.213Z,21.40
2017-09-26T00:18:30.733Z,18.53
2017-09-26T00:21:01.232Z,17.70
2017-09-26T00:23:31.170Z,19.80
2017-09-26T00:26:01.210Z,20.37
2017-09-26T00:28:30.073Z,19.83
2017-09-26T00:31:00.741Z,20.57
2017-09-26T00:33:30.501Z,19.83
2017-09-26T00:36:02.676Z,19.90
2017-09-26T00:38:33.348Z,17.80
2017-09-26T00:41:02.659Z,19.83
2017-09-26T00:43:32.542Z,18.30
2017-09-26T00:46:02.607Z,16.63
2017-09-26T00:48:31.674Z,17.77
2017-09-26T00:51:01.966Z,17.87
2017-09-26T00:53:31.765Z,18.53
2017-09-26T00:56:01.448Z,18.23
2017-09-26T00:58:31.176Z,20.43
2017-09-26T01:01:01.146Z,19.47
2017-09-26T01:03:37.944Z,19.07
2017-09-26T01:06:09.853Z,17.30
2017-09-26T01:08:39.829Z,19.60
2017-09-26T01:11:10.041Z,21.60
2017-09-26T01:13:38.738Z,21.90
2017-09-26T01:16:08.399Z,19.93
2017-09-26T01:18:37.638Z,21.83
2017-09-26T01:21:09.071Z,21.17
2017-09-26T01:23:38.981Z,22.50
2017-09-26T01:26:07.980Z,22.50
2017-09-26T01:28:37.827Z,23.20
2017-09-26T01:31:07.084Z,22.40
2017-09-26T01:33:36.312Z,22.53
2017-09-26T01:36:05.077Z,22.90
2017-09-26T01:38:33.920Z,21.90
2017-09-26T01:41:15.797Z,22.93
2017-09-26T01:43:46.234Z,23.40
2017-09-26T01:46:15.520Z,23.40
2017-09-26T01:48:44.293Z,22.73
2017-09-26T01:51:16.082Z,23.53
2017-09-26T01:53:46.430Z,23.30
2017-09-26T01:56:19.541Z,25.60
2017-09-26T01:58:51.274Z,23.03
2017-09-26T02:01:21.937Z,23.27
2017-09-26T02:03:52.341Z,24.13
2017-09-26T02:06:21.492Z,25.67
2017-09-26T02:08:51.338Z,23.07
2017-09-26T02:11:21.117Z,25.53
2017-09-26T02:13:50.978Z,23.90
2017-09-26T02:16:21.283Z,23.90
2017-09-26T02:18:51.510Z,22.80
2017-09-26T02:21:21.476Z,22.93
2017-09-26T02:23:51.921Z,23.43
2017-09-26T02:26:23.473Z,22.97
2017-09-26T02:28:52.665Z,20.90
2017-09-26T02:31:24.339Z,22.53
2017-09-26T02:33:54.162Z,20.87
2017-09-26T02:36:23.912Z,21.97
2017-09-26T02:38:53.070Z,21.23
2017-09-26T02:41:21.953Z,18.77
2017-09-26T02:43:52.005Z,18.70
2017-09-26T02:46:22.660Z,18.47
2017-09-26T02:48:53.672Z,20.13
2017-09-26T02:51:24.079Z,18.47
2017-09-26T02:53:53.353Z,18.20
2017-09-26T02:56:22.387Z,19.43
2017-09-26T02:58:52.136Z,19.90
2017-09-26T03:01:21.664Z,19.00
2017-09-26T03:03:54.863Z,19.40
2017-09-26T03:06:24.443Z,20.23
2017-09-26T03:08:55.316Z,19.30
2017-09-26T03:11:26.959Z,19.13
2017-09-26T03:13:57.470Z,17.10
2017-09-26T03:16:27.032Z,19.13
2017-09-26T03:18:58.645Z,19.30
2017-09-26T03:21:27.438Z,20.03
2017-09-26T03:23:56.752Z,20.23
2017-09-26T03:26:26.690Z,18.97
2017-09-26T03:28:56.808Z,19.50
2017-09-26T03:31:25.961Z,18.97
2017-09-26T03:33:55.305Z,19.20
2017-09-26T03:36:25.709Z,19.13
2017-09-26T03:38:59.368Z,19.90
2017-09-26T03:41:28.572Z,21.57
2017-09-26T03:43:58.936Z,19.63
2017-09-26T03:46:28.152Z,22.97
2017-09-26T03:48:57.354Z,20.47
2017-09-26T03:51:26.314Z,21.10
2017-09-26T03:53:55.916Z,20.67
2017-09-26T03:56:25.594Z,20.63
2017-09-26T03:58:54.643Z,19.43
2017-09-26T04:01:25.816Z,20.73
2017-09-26T04:03:55.540Z,19.93
2017-09-26T04:06:25.004Z,19.00
2017-09-26T04:08:54.887Z,18.63
2017-09-26T04:11:24.217Z,21.50
2017-09-26T04:13:52.998Z,19.30
2017-09-26T04:16:21.609Z,20.33
2017-09-26T04:18:50.463Z,19.70
2017-09-26T04:21:19.128Z,20.00
2017-09-26T04:23:47.844Z,21.93
2017-09-26T04:26:16.332Z,22.40
2017-09-26T04:28:44.647Z,19.97
2017-09-26T04:31:13.864Z,19.90
2017-09-26T04:33:43.637Z,18.90
2017-09-26T04:36:13.365Z,19.17
2017-09-26T04:38:42.620Z,18.30
2017-09-26T04:41:11.450Z,18.97
2017-09-26T04:43:41.308Z,19.70
2017-09-26T04:46:11.757Z,20.57
2017-09-26T04:48:41.569Z,19.67
2017-09-26T04:51:09.933Z,19.17
2017-09-26T04:53:39.757Z,19.70
2017-09-26T04:56:09.006Z,19.53
2017-09-26T04:58:38.373Z,20.20
2017-09-26T05:01:07.140Z,21.90
2017-09-26T05:03:37.319Z,21.40
2017-09-26T05:06:06.830Z,21.73
2017-09-26T05:08:35.300Z,22.20
2017-09-26T05:11:04.413Z,22.17
2017-09-26T05:13:34.056Z,23.53
2017-09-26T05:16:03.157Z,23.50
2017-09-26T05:18:31.904Z,25.73
2017-09-26T05:21:01.741Z,25.87
2017-09-26T05:23:31.914Z,25.43
2017-09-26T05:26:01.408Z,23.30
2017-09-26T05:28:29.917Z,24.77
2017-09-26T05:30:59.226Z,22.73
2017-09-26T05:33:28.112Z,21.47
2017-09-26T05:35:56.706Z,19.63
2017-09-26T05:38:26.200Z,19.57
2017-09-26T05:40:54.535Z,17.57
2017-09-26T05:43:23.193Z,18.30
2017-09-26T05:45:51.738Z,17.27
2017-09-26T05:48:22.382Z,18.37
2017-09-26T05:50:50.981Z,18.00
2017-09-26T05:53:20.180Z,19.40
2017-09-26T05:55:48.712Z,20.47
2017-09-26T05:58:17.017Z,20.83
2017-09-26T06:00:45.715Z,18.73
2017-09-26T06:03:14.292Z,18.93
2017-09-26T06:05:42.718Z,20.07
2017-09-26T06:08:12.905Z,17.90
2017-09-26T06:10:42.041Z,20.20
2017-09-26T06:13:10.469Z,17.43
2017-09-26T06:15:39.028Z,19.23
2017-09-26T06:18:07.403Z,19.07
2017-09-26T06:20:36.105Z,17.47
2017-09-26T06:23:05.411Z,20.40
2017-09-26T06:25:34.714Z,18.00
2017-09-26T06:28:04.342Z,19.77
2017-09-26T06:30:33.456Z,20.10
2017-09-26T06:33:01.977Z,17.33
2017-09-26T06:35:30.579Z,18.50
2017-09-26T06:37:59.164Z,17.90
2017-09-26T06:40:27.657Z,17.13
2017-09-26T06:42:56.256Z,18.30
2017-09-26T06:45:24.946Z,17.53
2017-09-26T06:47:53.479Z,17.10
2017-09-26T06:50:21.890Z,19.17
2017-09-26T06:52:51.553Z,18.87
2017-09-26T06:55:20.827Z,18.50
2017-09-26T06:57:49.521Z,20.03
2017-09-26T07:00:18.054Z,20.97
2017-09-26T07:02:46.579Z,19.33
2017-09-26T07:05:15.015Z,20.13
2017-09-26T07:07:44.611Z,18.63
2017-09-26T07:10:14.346Z,20.47
2017-09-26T07:12:43.998Z,19.30
2017-09-26T07:15:12.574Z,20.27
2017-09-26T07:17:43.291Z,21.57
2017-09-26T07:20:14.888Z,19.13
2017-09-26T07:22:44.373Z,20.67
2017-09-26T07:25:13.835Z,20.30
2017-09-26T07:27:45.496Z,20.70
2017-09-26T07:30:14.344Z,19.40
2017-09-26T07:32:42.671Z,20.13
2017-09-26T07:35:12.081Z,21.53
2017-09-26T07:37:42.012Z,16.70
2017-09-26T07:40:10.548Z,18.20
2017-09-26T07:42:39.744Z,19.50
2017-09-26T07:45:08.171Z,18.20
2017-09-26T07:47:37.242Z,19.60
2017-09-26T07:50:06.424Z,18.00
2017-09-26T07:52:35.062Z,16.27
2017-09-26T07:55:08.596Z,18.23
2017-09-26T07:57:38.022Z,17.33
2017-09-26T08:00:07.188Z,17.60
2017-09-26T08:02:37.084Z,16.23
2017-09-26T08:05:06.438Z,17.93
2017-09-26T08:07:35.472Z,20.10
2017-09-26T08:10:06.422Z,20.03
2017-09-26T08:12:35.331Z,19.00
2017-09-26T08:15:04.617Z,20.30
2017-09-26T08:17:33.027Z,20.43
2017-09-26T08:20:01.301Z,18.77
2017-09-26T08:22:29.743Z,20.70
2017-09-26T08:24:58.720Z,18.83
2017-09-26T08:27:28.359Z,20.40
2017-09-26T08:29:56.873Z,18.40
2017-09-26T08:32:27.426Z,19.87
2017-09-26T08:34:55.736Z,17.60
2017-09-26T08:37:24.140Z,18.47
2017-09-26T08:39:52.463Z,19.30
2017-09-26T08:42:21.647Z,18.27
2017-09-26T08:44:50.672Z,20.03
2017-09-26T08:47:19.331Z,19.40
2017-09-26T08:49:47.593Z,18.80
2017-09-26T08:52:15.851Z,17.00
2017-09-26T08:54:47.343Z,18.90
2017-09-26T08:57:15.636Z,16.83
2017-09-26T08:59:44.668Z,17.60
2017-09-26T09:02:13.705Z,17.70
2017-09-26T09:04:42.008Z,19.43
2017-09-26T09:07:11.076Z,18.50
2017-09-26T09:09:39.616Z,17.83
2017-09-26T09:12:07.858Z,17.63
2017-09-26T09:14:36.935Z,18.60
2017-09-26T09:17:05.995Z,17.83
2017-09-26T09:19:35.027Z,19.57
2017-09-26T09:22:03.345Z,18.20
2017-09-26T09:24:31.611Z,17.53
2017-09-26T09:27:00.701Z,18.50
2017-09-26T09:29:29.996Z,16.60
2017-09-26T09:32:00.043Z,17.40
2017-09-26T09:34:29.857Z,19.17
2017-09-26T09:36:59.028Z,16.50
2017-09-26T09:39:27.475Z,18.30
2017-09-26T09:41:55.982Z,17.27
2017-09-26T09:44:24.302Z,16.97
2017-09-26T09:46:53.672Z,16.43
2017-09-26T09:49:21.957Z,16.03
2017-09-26T09:51:53.980Z,17.17
2017-09-26T09:54:29.502Z,16.90
2017-09-26T09:56:57.821Z,15.87
2017-09-26T09:59:26.112Z,16.70
2017-09-26T10:01:54.400Z,16.23
2017-09-26T10:04:24.371Z,15.53
2017-09-26T10:06:52.650Z,16.10
2017-09-26T10:09:21.714Z,18.27
2017-09-26T10:11:50.015Z,14.40
2017-09-26T10:14:18.272Z,15.27
2017-09-26T10:16:47.430Z,14.17
2017-09-26T10:19:15.770Z,15.90
2017-09-26T10:21:44.063Z,14.93
2017-09-26T10:24:14.120Z,14.23
2017-09-26T10:26:42.419Z,13.37
2017-09-26T10:29:10.722Z,14.27
2017-09-26T10:31:39.016Z,13.50
2017-09-26T10:34:07.322Z,14.13
2017-09-26T10:36:35.644Z,14.67
2017-09-26T10:39:03.925Z,13.13
2017-09-26T10:41:33.024Z,12.63
2017-09-26T10:44:01.285Z,13.83
2017-09-26T10:46:29.631Z,13.33
2017-09-26T10:48:58.663Z,12.90
2017-09-26T10:51:26.988Z,13.10
2017-09-26T10:53:55.259Z,12.03
2017-09-26T10:56:24.291Z,11.30
2017-09-26T10:58:52.579Z,13.00
2017-09-26T11:01:20.865Z,11.33
2017-09-26T11:03:49.161Z,11.63
2017-09-26T11:06:17.432Z,13.03
2017-09-26T11:08:45.868Z,11.67
2017-09-26T11:11:15.142Z,10.63
2017-09-26T11:13:44.499Z,10.10
2017-09-26T11:16:12.834Z,10.33
2017-09-26T11:18:41.126Z,10.40
2017-09-26T11:21:11.623Z,11.20
2017-09-26T11:23:42.420Z,10.67
2017-09-26T11:26:14.042Z,10.23
2017-09-26T11:28:44.383Z,9.83
2017-09-26T11:31:12.983Z,10.50
2017-09-26T11:33:45.822Z,10.27
2017-09-26T11:36:15.181Z,10.63
2017-09-26T11:38:44.943Z,11.27
2017-09-26T11:41:13.716Z,10.30
2017-09-26T11:43:42.078Z,10.77
2017-09-26T11:46:10.367Z,9.33
2017-09-26T11:48:38.673Z,10.20
2017-09-26T11:51:07.128Z,10.10
2017-09-26T11:53:35.648Z,8.80
2017-09-26T11:56:04.161Z,11.20
2017-09-26T11:58:33.028Z,9.63
2017-09-26T12:01:02.855Z,11.57
2017-09-26T12:03:31.657Z,10.17
2017-09-26T12:06:00.840Z,10.57
2017-09-26T12:08:29.900Z,9.30
2017-09-26T12:10:58.214Z,8.37
2017-09-26T12:13:32.318Z,9.57
2017-09-26T12:16:01.463Z,9.13
2017-09-26T12:18:30.689Z,8.83
2017-09-26T12:20:59.725Z,8.30
2017-09-26T12:23:28.021Z,7.97
2017-09-26T12:25:56.290Z,9.27
2017-09-26T12:28:24.598Z,7.53
2017-09-26T12:30:53.751Z,8.17
2017-09-26T12:33:28.167Z,9.47
2017-09-26T12:35:56.500Z,9.63
2017-09-26T12:38:25.756Z,9.63
2017-09-26T12:40:54.103Z,11.33
2017-09-26T12:43:22.441Z,10.00
2017-09-26T12:45:50.803Z,8.80
2017-09-26T12:48:19.072Z,9.60
2017-09-26T12:50:47.359Z,10.67
2017-09-26T12:53:15.732Z,11.30
2017-09-26T12:55:43.996Z,10.63
2017-09-26T12:58:12.352Z,11.10
2017-09-26T13:00:41.412Z,11.53
2017-09-26T13:03:09.702Z,12.17
2017-09-26T13:05:38.907Z,10.73
2017-09-26T13:08:07.293Z,10.67
2017-09-26T13:10:35.544Z,10.47
2017-09-26T13:13:03.910Z,10.97
2017-09-26T13:15:32.200Z,11.43
2017-09-26T13:18:00.529Z,12.07
2017-09-26T13:20:29.727Z,13.53
2017-09-26T13:22:58.052Z,12.60
2017-09-26T13:25:29.737Z,13.70
2017-09-26T13:27:58.073Z,12.37
2017-09-26T13:30:27.161Z,12.20
2017-09-26T13:32:55.435Z,14.23
2017-09-26T13:35:24.497Z,12.83
2017-09-26T13:37:53.743Z,12.97
2017-09-26T13:40:22.040Z,13.20
2017-09-26T13:45:51.719Z,17.67
2017-09-26T13:48:20.073Z,13.70
2017-09-26T13:50:48.590Z,10.67
2017-09-26T13:53:17.652Z,7.47
2017-09-26T13:55:45.933Z,8.27
2017-09-26T13:58:14.218Z,8.00
2017-09-26T14:00:42.502Z,6.77
2017-09-26T14:03:11.601Z,8.90
2017-09-26T14:05:40.775Z,8.20
2017-09-26T14:08:10.053Z,7.27
2017-09-26T14:10:38.512Z,10.47
2017-09-26T14:13:07.060Z,6.90
2017-09-26T14:15:36.404Z,5.70
2017-09-26T14:18:06.360Z,6.10
2017-09-26T14:20:36.304Z,4.70
2017-09-26T14:23:05.083Z,5.40
2017-09-26T14:25:33.670Z,4.80
2017-09-26T14:28:02.717Z,5.17
2017-09-26T14:30:32.240Z,5.37
2017-09-26T14:33:00.624Z,4.43
2017-09-26T14:35:29.196Z,5.57
2017-09-26T14:37:59.202Z,4.77
2017-09-26T14:40:28.480Z,5.97
2017-09-26T14:42:57.818Z,4.10
2017-09-26T14:45:27.248Z,4.40
2017-09-26T14:47:55.914Z,4.20
2017-09-26T14:50:25.238Z,3.70
2017-09-26T14:52:53.620Z,3.20
2017-09-26T14:55:22.875Z,4.57
2017-09-26T14:57:52.544Z,4.20
2017-09-26T15:00:21.894Z,4.03
2017-09-26T15:02:52.201Z,4.53
2017-09-26T15:05:20.758Z,4.17
2017-09-26T15:07:49.941Z,2.67
2017-09-26T15:10:18.426Z,3.40
2017-09-26T15:12:46.867Z,4.00
2017-09-26T15:15:18.078Z,3.20
2017-09-26T15:17:46.686Z,4.57
2017-09-26T15:20:15.017Z,4.23
2017-09-26T15:22:43.492Z,4.03
2017-09-26T15:25:11.811Z,3.93
2017-09-26T15:27:40.918Z,4.43
2017-09-26T15:30:09.228Z,4.13
2017-09-26T15:32:37.516Z,5.10
2017-09-26T15:35:05.857Z,4.60
2017-09-26T15:37:36.075Z,5.17
2017-09-26T15:40:04.402Z,5.00
2017-09-26T15:42:39.503Z,4.30
2017-09-26T15:45:07.787Z,4.67
2017-09-26T15:47:36.069Z,4.43
2017-09-26T15:50:06.234Z,6.07
2017-09-26T15:52:34.583Z,5.80
2017-09-26T15:55:02.901Z,4.90
2017-09-26T15:57:31.281Z,5.70
2017-09-26T15:59:59.723Z,5.30
2017-09-26T16:02:28.827Z,4.87
2017-09-26T16:04:58.038Z,3.70
2017-09-26T16:07:27.134Z,4.57
2017-09-26T16:09:56.321Z,4.53
2017-09-26T16:12:26.558Z,4.47
2017-09-26T16:14:55.724Z,4.50
2017-09-26T16:17:24.081Z,4.87
2017-09-26T16:19:54.128Z,3.77
2017-09-26T16:22:22.481Z,3.50
2017-09-26T16:24:50.857Z,2.77
2017-09-26T16:27:19.224Z,3.60
2017-09-26T16:29:47.740Z,4.40
2017-09-26T16:32:16.845Z,3.70
2017-09-26T16:34:45.832Z,3.43
2017-09-26T16:37:14.294Z,4.47
2017-09-26T16:39:44.974Z,3.47
2017-09-26T16:42:13.735Z,3.10
2017-09-26T16:44:43.261Z,4.20
2017-09-26T16:47:11.699Z,3.80
2017-09-26T16:49:41.121Z,3.53
2017-09-26T16:52:10.287Z,5.50
2017-09-26T16:54:38.626Z,6.17
2017-09-26T16:57:08.431Z,4.80
2017-09-26T16:59:37.546Z,5.50
2017-09-26T17:02:06.334Z,6.03
2017-09-26T17:04:34.774Z,5.90
2017-09-26T17:07:03.111Z,6.03
2017-09-26T17:09:32.225Z,4.80
2017-09-26T17:12:00.706Z,5.20
2017-09-26T17:14:29.953Z,6.57
2017-09-26T17:17:01.126Z,5.43
2017-09-26T17:19:29.481Z,11.13
2017-09-26T17:21:58.752Z,14.73
2017-09-26T17:24:27.890Z,11.37
2017-09-26T17:26:57.096Z,9.37
2017-09-26T17:29:25.637Z,7.97
2017-09-26T17:31:55.735Z,8.70
2017-09-26T17:34:24.938Z,8.63
2017-09-26T17:36:53.325Z,8.50
2017-09-26T17:39:23.194Z,12.00
2017-09-26T17:41:51.550Z,16.57
2017-09-26T17:44:24.456Z,13.57
2017-09-26T17:46:53.368Z,10.03
2017-09-26T17:49:21.703Z,11.10
2017-09-26T17:51:51.087Z,13.83
2017-09-26T17:54:20.255Z,13.20
2017-09-26T17:56:49.552Z,10.60
2017-09-26T17:59:18.330Z,9.30
2017-09-26T18:01:46.894Z,12.93
2017-09-26T18:04:19.034Z,10.50
2017-09-26T18:06:49.303Z,9.77
2017-09-26T18:09:17.797Z,9.17
2017-09-26T18:11:48.260Z,9.83
2017-09-26T18:14:17.834Z,9.30
2017-09-26T18:16:46.454Z,10.20
2017-09-26T18:19:17.826Z,8.23
2017-09-26T18:21:46.173Z,9.83
2017-09-26T18:24:15.458Z,10.20
2017-09-26T18:26:44.740Z,10.67
2017-09-26T18:29:13.202Z,10.23
2017-09-26T18:31:42.602Z,9.67
2017-09-26T18:34:11.772Z,8.80
2017-09-26T18:36:40.482Z,9.23
2017-09-26T18:39:08.777Z,9.00
2017-09-26T18:41:37.287Z,7.87
2017-09-26T18:44:05.868Z,6.53
2017-09-26T18:46:34.222Z,5.77
2017-09-26T18:49:03.546Z,6.33
2017-09-26T18:51:32.854Z,6.23
2017-09-26T18:54:02.334Z,5.90
2017-09-26T18:56:32.581Z,6.23
2017-09-26T18:59:02.072Z,5.70
2017-09-26T19:01:30.440Z,5.77
2017-09-26T19:03:58.849Z,6.30
2017-09-26T19:06:30.138Z,5.63
2017-09-26T19:08:58.643Z,6.30
2017-09-26T19:11:31.350Z,5.73
2017-09-26T19:14:00.207Z,5.90
2017-09-26T19:16:28.957Z,5.50
2017-09-26T19:18:57.554Z,5.00
2017-09-26T19:21:28.241Z,5.27
2017-09-26T19:23:59.015Z,5.67
2017-09-26T19:26:28.064Z,7.00
2017-09-26T19:28:58.709Z,6.10
2017-09-26T19:31:28.063Z,5.83
2017-09-26T19:33:59.284Z,7.07
2017-09-26T19:36:28.960Z,6.63
2017-09-26T19:38:58.374Z,6.57
2017-09-26T19:41:29.575Z,7.00
2017-09-26T19:43:57.997Z,5.77
2017-09-26T19:46:27.194Z,5.63
2017-09-26T19:48:57.517Z,5.80
2017-09-26T19:51:26.657Z,6.40
2017-09-26T19:53:55.327Z,6.97
2017-09-26T19:56:24.617Z,7.00
2017-09-26T19:58:53.779Z,7.73
2017-09-26T20:01:24.966Z,7.50
2017-09-26T20:03:53.346Z,7.80
2017-09-26T20:06:21.756Z,7.00
2017-09-26T20:08:50.183Z,8.27
2017-09-26T20:11:19.258Z,8.10
2017-09-26T20:13:49.707Z,8.23
2017-09-26T20:16:21.901Z,7.80
2017-09-26T20:18:50.875Z,7.23
2017-09-26T20:21:24.720Z,6.00
2017-09-26T20:23:53.353Z,6.53
2017-09-26T20:26:22.023Z,6.87
2017-09-26T20:28:52.178Z,8.30
2017-09-26T20:31:21.337Z,8.17
2017-09-26T20:33:50.632Z,9.00
2017-09-26T20:36:19.009Z,8.77
2017-09-26T20:38:47.477Z,8.73
2017-09-26T20:41:16.614Z,8.47
2017-09-26T20:43:46.098Z,8.33
2017-09-26T20:46:15.280Z,10.27
2017-09-26T20:48:43.691Z,12.90
2017-09-26T20:51:12.941Z,8.77
2017-09-26T20:53:42.103Z,8.37
2017-09-26T20:56:10.410Z,8.23
2017-09-26T20:58:38.853Z,8.93
2017-09-26T21:01:07.287Z,7.90
2017-09-26T21:03:36.401Z,8.30
2017-09-26T21:06:04.732Z,8.30
2017-09-26T21:08:33.281Z,8.13
2017-09-26T21:11:03.087Z,7.70
2017-09-26T21:13:31.528Z,8.00
2017-09-26T21:16:00.269Z,7.80
2017-09-26T21:18:30.270Z,7.80
2017-09-26T21:21:03.529Z,8.60
2017-09-26T21:23:32.565Z,8.73
2017-09-26T21:26:03.234Z,8.87
2017-09-26T21:28:32.123Z,8.50
2017-09-26T21:31:00.643Z,8.97
2017-09-26T21:33:29.377Z,8.03
2017-09-26T21:36:00.204Z,8.70
2017-09-26T21:38:31.201Z,7.80
2017-09-26T21:41:00.981Z,8.63
2017-09-26T21:43:31.405Z,7.53
2017-09-26T21:46:00.606Z,7.20
2017-09-26T21:48:30.659Z,7.73
2017-09-26T21:50:58.990Z,9.60
2017-09-26T21:53:29.934Z,7.80
2017-09-26T21:55:58.245Z,9.27
2017-09-26T21:58:26.693Z,8.60
2017-09-26T22:00:54.994Z,8.83
2017-09-26T22:03:24.264Z,9.40
2017-09-26T22:05:55.185Z,8.13
2017-09-26T22:08:24.252Z,8.30
2017-09-26T22:10:53.373Z,8.47
2017-09-26T22:13:22.576Z,7.87
2017-09-26T22:15:52.250Z,7.00
2017-09-26T22:18:21.542Z,8.40
2017-09-26T22:20:51.399Z,8.60
2017-09-26T22:23:40.046Z,10.10
2017-09-26T22:26:09.189Z,10.53
2017-09-26T22:28:37.517Z,11.17
2017-09-26T22:31:05.839Z,11.73
2017-09-26T22:33:34.136Z,9.80
2017-09-26T22:36:02.547Z,11.50
2017-09-26T22:38:30.852Z,11.40
2017-09-26T22:40:59.143Z,11.13
2017-09-26T22:43:27.612Z,10.73
2017-09-26T22:45:56.637Z,9.87
2017-09-26T22:48:24.902Z,10.40
2017-09-26T22:50:53.188Z,10.00
2017-09-26T22:53:21.481Z,10.77
2017-09-26T22:55:51.362Z,10.47
2017-09-26T22:58:19.737Z,9.70
2017-09-26T23:21:33.100Z,9.47
2017-09-26T23:24:01.443Z,9.83
2017-09-26T23:26:29.689Z,8.60
2017-09-26T23:28:58.054Z,8.23
2017-09-26T23:31:26.319Z,9.03
2017-09-26T23:33:54.590Z,7.53
2017-09-26T23:36:23.772Z,8.40
2017-09-26T23:38:52.041Z,7.07
2017-09-26T23:41:21.061Z,7.03
2017-09-26T23:43:49.367Z,8.03
2017-09-26T23:46:17.671Z,7.63
2017-09-26T23:48:46.746Z,6.90
2017-09-26T23:51:15.072Z,7.33
2017-09-26T23:53:43.449Z,7.00
2017-09-26T23:56:13.444Z,6.70
2017-09-26T23:58:43.023Z,6.63
